Time;durP1;ratioP1;P1;durP2;ratioP2;P2;SDS_P1;SDS_P2;PMS_P1;PMS_P2;Temp;Humidity;BMP_temperature;BMP_pressure;BME280_temperature;BME280_humidity;BME280_pressure;Samples;Min_cycle;Max_cycle;Signal;HPM_P1;HPM_P2
2022/01/11 00:01:30;;;;;;;9.93;7.40;;;;;;;-4.26;85.15;100409.16;1724168;83;21041;-78
2022/01/11 00:03:57;;;;;;;9.33;5.77;;;;;;;-4.35;84.19;100408.19;1746627;81;20943;-79
2022/01/11 00:08:51;;;;;;;7.50;5.20;;;;;;;-4.36;83.49;100409.66;1755250;80;21018;-79
2022/01/11 00:11:18;;;;;;;6.60;5.17;;;;;;;-4.37;83.12;100418.49;1744153;82;21104;-77
2022/01/11 00:13:45;;;;;;;10.13;6.63;;;;;;;-4.41;83.20;100427.10;1738289;82;21590;-76
2022/01/11 00:16:14;;;;;;;13.77;9.97;;;;;;;-4.50;82.55;100412.17;1691780;83;21014;-80
2022/01/11 00:18:41;;;;;;;12.80;7.00;;;;;;;-4.53;81.66;100427.72;1701696;82;21076;-77
2022/01/11 00:21:07;;;;;;;8.33;5.60;;;;;;;-4.53;81.67;100431.66;1698621;83;21775;-74
2022/01/11 00:26:00;;;;;;;7.70;6.03;;;;;;;-4.56;81.19;100422.75;1697387;83;21027;-72
2022/01/11 00:28:26;;;;;;;8.27;6.13;;;;;;;-4.54;81.44;100430.47;1700853;82;21053;-72
2022/01/11 00:31:08;;;;;;;7.87;3.97;;;;;;;-4.60;81.51;100433.63;1705483;83;21039;-72
2022/01/11 00:33:42;;;;;;;8.83;5.60;;;;;;;-4.54;81.98;100443.59;1697209;83;21575;-74
2022/01/11 00:36:07;;;;;;;9.83;6.07;;;;;;;-4.47;82.19;100439.00;1718605;83;21076;-74
2022/01/11 00:38:39;;;;;;;10.07;6.93;;;;;;;-4.49;82.73;100436.98;1691798;83;21100;-77
2022/01/11 00:41:12;;;;;;;9.10;6.17;;;;;;;-4.46;82.93;100438.52;1692007;83;21522;-83
2022/01/11 00:43:40;;;;;;;10.87;6.70;;;;;;;-4.41;83.17;100443.69;1716560;83;21012;-82
2022/01/11 00:46:07;;;;;;;6.53;5.80;;;;;;;-4.36;83.41;100441.97;1716472;83;21333;-81
2022/01/11 00:48:39;;;;;;;9.93;6.13;;;;;;;-4.31;83.49;100441.55;1689898;83;21502;-83
2022/01/11 00:51:02;;;;;;;7.37;5.40;;;;;;;-4.32;83.21;100447.80;1689535;83;21495;-80
2022/01/11 00:53:29;;;;;;;8.03;6.07;;;;;;;-4.28;83.29;100451.80;1716926;83;21487;-86
2022/01/11 00:55:55;;;;;;;6.77;5.83;;;;;;;-4.27;82.62;100445.12;1716992;83;21566;-77
2022/01/11 00:58:22;;;;;;;4.33;3.97;;;;;;;-4.30;82.35;100452.41;1716432;83;21755;-82
2022/01/11 01:00:48;;;;;;;11.33;5.77;;;;;;;-4.38;81.97;100449.64;1716415;83;21056;-72
2022/01/11 01:03:14;;;;;;;7.83;6.03;;;;;;;-4.39;82.30;100443.56;1716403;83;21009;-73
2022/01/11 01:05:41;;;;;;;6.87;5.40;;;;;;;-4.36;82.44;100450.36;1716562;83;21006;-74
2022/01/11 01:08:08;;;;;;;9.63;5.60;;;;;;;-4.33;82.41;100451.38;1716650;83;21012;-76
2022/01/11 01:10:39;;;;;;;7.10;5.83;;;;;;;-4.35;82.25;100448.88;1689822;83;21069;-75
2022/01/11 01:13:13;;;;;;;6.43;5.20;;;;;;;-4.29;82.33;100454.08;1716333;83;20962;-81
2022/01/11 01:15:40;;;;;;;5.87;5.20;;;;;;;-4.32;82.04;100459.13;1689942;83;21116;-72
2022/01/11 01:18:11;;;;;;;6.47;4.87;;;;;;;-4.30;82.10;100458.50;1719493;83;21570;-79
2022/01/11 01:20:36;;;;;;;7.57;5.60;;;;;;;-4.26;82.19;100471.70;1721663;83;21051;-77
2022/01/11 01:23:03;;;;;;;7.67;5.73;;;;;;;-4.22;82.11;100467.83;1716461;83;21580;-80
2022/01/11 01:25:30;;;;;;;5.73;4.63;;;;;;;-4.17;82.07;100471.39;1716534;83;21025;-84
2022/01/11 01:27:57;;;;;;;7.57;5.43;;;;;;;-4.18;81.73;100462.67;1690010;83;21021;-78
2022/01/11 01:30:23;;;;;;;6.00;5.37;;;;;;;-4.18;81.72;100466.62;1717960;83;21002;-80
2022/01/11 01:32:50;;;;;;;9.40;6.30;;;;;;;-4.21;81.61;100464.24;1690974;83;20957;-82
2022/01/11 01:35:19;;;;;;;5.97;5.30;;;;;;;-4.26;81.68;100482.68;1690270;83;21557;-80
2022/01/11 01:37:46;;;;;;;5.90;4.67;;;;;;;-4.25;81.81;100472.53;1715349;81;20964;-88
2022/01/11 01:40:16;;;;;;;9.80;5.80;;;;;;;-4.31;81.67;100482.25;1752583;81;20900;-88
2022/01/11 01:42:42;;;;;;;6.83;5.63;;;;;;;-4.35;81.68;100471.67;1705664;81;20897;-89
2022/01/11 01:45:12;;;;;;;8.00;5.60;;;;;;;-4.43;82.09;100479.77;1752621;81;20955;-75
2022/01/11 01:47:39;;;;;;;7.57;5.97;;;;;;;-4.44;82.31;100479.89;1752855;81;21757;-69
2022/01/11 01:50:07;;;;;;;9.03;5.13;;;;;;;-4.42;82.37;100483.22;1750976;81;21528;-72
2022/01/11 01:52:34;;;;;;;7.43;5.07;;;;;;;-4.44;82.27;100492.53;1750924;81;20940;-73
2022/01/11 01:55:02;;;;;;;8.93;6.50;;;;;;;-4.47;82.29;100487.56;1741925;81;21044;-79
2022/01/11 01:57:29;;;;;;;11.17;5.63;;;;;;;-4.48;82.44;100492.45;1719044;83;21562;-77
2022/01/11 01:59:55;;;;;;;9.53;6.33;;;;;;;-4.47;82.55;100487.56;1719182;83;21912;-81
2022/01/11 02:02:22;;;;;;;8.33;5.90;;;;;;;-4.45;82.62;100490.03;1691160;83;21049;-81
2022/01/11 02:04:50;;;;;;;9.17;6.17;;;;;;;-4.44;82.78;100492.53;1691337;83;20961;-81
2022/01/11 02:07:16;;;;;;;10.07;6.77;;;;;;;-4.47;82.56;100490.67;1717813;83;21652;-82
2022/01/11 02:09:42;;;;;;;10.90;7.90;;;;;;;-4.53;82.50;100506.94;1718246;83;21041;-78
2022/01/11 02:12:09;;;;;;;11.97;6.03;;;;;;;-4.56;82.73;100496.72;1717900;83;21530;-83
2022/01/11 02:14:36;;;;;;;7.80;5.60;;;;;;;-4.60;82.95;100509.25;1691461;83;21016;-83
2022/01/11 02:17:04;;;;;;;9.60;6.57;;;;;;;-4.63;83.02;100499.03;1718542;83;21013;-80
2022/01/11 02:19:30;;;;;;;11.10;6.47;;;;;;;-4.59;83.19;100496.48;1692068;83;21021;-81
2022/01/11 02:21:57;;;;;;;8.47;7.53;;;;;;;-4.57;83.17;100502.45;1718636;83;21590;-80
2022/01/11 02:24:24;;;;;;;6.47;5.30;;;;;;;-4.53;83.24;100505.15;1719031;83;21157;-77
2022/01/11 02:26:50;;;;;;;6.53;5.00;;;;;;;-4.51;83.20;100506.34;1718750;83;20993;-81
2022/01/11 02:29:18;;;;;;;6.53;5.10;;;;;;;-4.52;83.15;100498.95;1718740;83;21049;-82
2022/01/11 02:31:48;;;;;;;5.47;4.83;;;;;;;-4.49;83.22;100499.14;1721404;82;21026;-76
2022/01/11 02:34:14;;;;;;;7.37;5.50;;;;;;;-4.51;83.27;100507.66;1734770;82;21526;-75
2022/01/11 02:36:45;;;;;;;8.37;6.00;;;;;;;-4.55;83.26;100508.37;1674974;83;21808;-79
2022/01/11 02:39:23;;;;;;;6.40;5.00;;;;;;;-4.56;83.50;100501.49;1678623;83;21044;-80
2022/01/11 02:41:54;;;;;;;8.80;4.80;;;;;;;-4.57;83.61;100500.30;1724097;82;21035;-73
2022/01/11 02:44:23;;;;;;;8.30;4.90;;;;;;;-4.60;83.59;100499.23;1746056;81;21034;-75
2022/01/11 02:46:50;;;;;;;6.30;5.63;;;;;;;-4.64;83.85;100498.68;1718631;82;21013;-78
2022/01/11 02:49:17;;;;;;;8.40;4.97;;;;;;;-4.65;84.02;100511.95;1714479;82;21001;-78
2022/01/11 02:51:45;;;;;;;6.57;5.20;;;;;;;-4.63;84.08;100519.20;1651021;85;20962;-76
2022/01/11 02:54:12;;;;;;;8.50;4.70;;;;;;;-4.61;84.16;100512.03;1652808;86;20994;-76
2022/01/11 02:56:39;;;;;;;6.53;5.03;;;;;;;-4.64;84.13;100513.11;1637498;85;21016;-76
2022/01/11 02:59:05;;;;;;;6.43;4.33;;;;;;;-4.61;84.25;100511.55;1679163;85;20965;-78
2022/01/11 03:01:32;;;;;;;6.20;5.07;;;;;;;-4.62;84.12;100515.14;1672048;85;21547;-79
2022/01/11 03:03:59;;;;;;;8.87;5.97;;;;;;;-4.64;84.26;100507.86;1672206;85;21579;-78
2022/01/11 03:06:25;;;;;;;7.03;5.77;;;;;;;-4.70;84.15;100516.77;1645191;85;21070;-78
2022/01/11 03:08:51;;;;;;;6.87;4.80;;;;;;;-4.72;84.27;100514.27;1672631;85;21082;-78
2022/01/11 03:11:21;;;;;;;6.60;5.50;;;;;;;-4.79;83.87;100517.05;1672247;85;20936;-80
2022/01/11 03:13:48;;;;;;;9.70;5.47;;;;;;;-4.83;83.77;100514.34;1672467;85;21133;-79
2022/01/11 03:16:18;;;;;;;5.97;4.47;;;;;;;-4.81;83.86;100521.62;1645030;85;20990;-78
2022/01/11 03:18:46;;;;;;;7.80;4.80;;;;;;;-4.80;83.84;100512.79;1644978;85;21637;-78
2022/01/11 03:21:12;;;;;;;6.80;5.53;;;;;;;-4.86;83.93;100536.92;1644515;85;20970;-76
2022/01/11 03:23:39;;;;;;;7.20;5.27;;;;;;;-4.91;84.12;100528.61;1659199;85;21020;-78
2022/01/11 03:26:06;;;;;;;5.77;5.17;;;;;;;-4.93;84.33;100525.27;1610902;86;21181;-81
2022/01/11 03:28:33;;;;;;;4.97;4.30;;;;;;;-4.92;84.56;100525.63;1657150;86;21116;-79
2022/01/11 03:31:00;;;;;;;6.67;4.70;;;;;;;-4.91;84.74;100534.69;1657190;86;20954;-80
2022/01/11 03:33:30;;;;;;;6.87;5.10;;;;;;;-4.89;84.87;100538.47;1657293;86;21017;-79
2022/01/11 03:35:58;;;;;;;4.93;4.43;;;;;;;-4.87;84.97;100541.81;1657307;86;20993;-77
2022/01/11 03:38:25;;;;;;;7.33;5.53;;;;;;;-4.90;85.17;100542.08;1657231;86;21079;-79
2022/01/11 03:40:53;;;;;;;8.60;5.47;;;;;;;-4.88;85.47;100546.69;1665430;85;21077;-79
2022/01/11 03:43:22;;;;;;;7.43;4.93;;;;;;;-4.85;85.62;100545.14;1668884;85;21542;-80
2022/01/11 03:45:49;;;;;;;6.17;4.83;;;;;;;-4.79;85.71;100540.66;1657411;85;21077;-80
2022/01/11 03:48:16;;;;;;;5.47;4.63;;;;;;;-4.70;85.66;100539.88;1654012;85;21151;-77
2022/01/11 03:50:49;;;;;;;7.83;5.80;;;;;;;-4.69;85.57;100541.54;1605080;88;21101;-79
2022/01/11 03:53:15;;;;;;;7.03;5.73;;;;;;;-4.71;85.57;100542.65;1631661;88;21023;-79
2022/01/11 03:55:58;;;;;;;6.17;5.03;;;;;;;-4.66;85.73;100549.17;1633690;87;21058;-74
2022/01/11 03:58:12;;;;;;;5.30;4.80;;;;;;;-4.64;85.70;100543.77;1631073;87;21054;-75
2022/01/11 04:00:39;;;;;;;7.23;5.87;;;;;;;-4.66;85.79;100541.78;1616032;88;21087;-81
2022/01/11 04:03:05;;;;;;;7.33;5.97;;;;;;;-4.72;86.08;100551.00;1632284;88;21160;-81
2022/01/11 04:05:32;;;;;;;8.70;5.43;;;;;;;-4.67;86.23;100540.11;1629631;88;21047;-80
2022/01/11 04:07:59;;;;;;;8.67;4.67;;;;;;;-4.68;86.49;100543.69;1605399;88;21067;-81
2022/01/11 04:10:25;;;;;;;7.03;5.23;;;;;;;-4.68;86.70;100546.31;1632349;87;20995;-81
2022/01/11 04:12:53;;;;;;;5.93;4.77;;;;;;;-4.64;86.70;100547.70;1634036;87;21126;-81
2022/01/11 04:15:19;;;;;;;5.97;4.93;;;;;;;-4.60;86.72;100553.88;1609958;87;21204;-82
2022/01/11 04:17:46;;;;;;;8.43;5.20;;;;;;;-4.54;86.78;100568.27;1633891;87;21046;-79
2022/01/11 04:20:14;;;;;;;7.70;5.90;;;;;;;-4.48;86.84;100563.33;1609671;87;21106;-80
2022/01/11 04:22:41;;;;;;;5.30;4.53;;;;;;;-4.44;86.70;100562.10;1630779;87;21034;-78
2022/01/11 04:25:09;;;;;;;7.43;6.20;;;;;;;-4.40;86.72;100554.78;1616638;88;21000;-78
2022/01/11 04:27:35;;;;;;;5.20;4.40;;;;;;;-4.36;86.56;100565.87;1643533;87;21220;-79
2022/01/11 04:30:02;;;;;;;9.27;4.73;;;;;;;-4.41;86.50;100569.70;1615836;88;21630;-81
2022/01/11 04:32:30;;;;;;;8.90;5.83;;;;;;;-4.45;86.56;100579.29;1617608;87;21104;-78
2022/01/11 04:34:57;;;;;;;7.03;5.27;;;;;;;-4.45;86.68;100572.72;1643962;87;21058;-79
2022/01/11 04:37:24;;;;;;;9.20;7.20;;;;;;;-4.41;86.78;100580.68;1643985;87;21129;-80
2022/01/11 04:39:51;;;;;;;12.37;7.23;;;;;;;-4.40;86.84;100575.78;1643899;87;21067;-83
2022/01/11 04:42:18;;;;;;;7.70;5.00;;;;;;;-4.36;87.01;100582.94;1642747;87;21063;-82
2022/01/11 04:44:45;;;;;;;16.10;7.37;;;;;;;-4.41;87.25;100588.55;1617715;87;20983;-79
2022/01/11 04:47:11;;;;;;;17.73;8.53;;;;;;;-4.42;87.47;100585.61;1638442;86;21043;-83
2022/01/11 04:49:38;;;;;;;12.43;7.90;;;;;;;-4.39;87.65;100587.95;1637770;87;21065;-82
2022/01/11 04:52:06;;;;;;;9.40;5.83;;;;;;;-4.36;87.77;100590.30;1665105;86;21032;-84
2022/01/11 04:54:32;;;;;;;13.07;7.40;;;;;;;-4.31;87.90;100593.84;1664774;86;21537;-82
2022/01/11 04:56:59;;;;;;;11.93;8.60;;;;;;;-4.36;88.19;100589.50;1665146;86;21046;-83
2022/01/11 04:59:27;;;;;;;13.90;7.40;;;;;;;-4.38;88.47;100600.13;1664780;85;21530;-84
2022/01/11 05:01:53;;;;;;;13.77;7.43;;;;;;;-4.38;88.61;100601.91;1666263;85;21674;-80
2022/01/11 05:04:20;;;;;;;9.87;6.73;;;;;;;-4.42;88.97;100616.63;1665930;86;21123;-74
2022/01/11 05:06:47;;;;;;;8.43;6.80;;;;;;;-4.36;88.96;100611.81;1622845;87;21073;-75
2022/01/11 05:09:14;;;;;;;7.83;6.23;;;;;;;-4.32;89.10;100614.53;1637729;87;21059;-75
2022/01/11 05:11:43;;;;;;;11.73;6.83;;;;;;;-4.28;89.15;100611.98;1640024;86;21063;-79
2022/01/11 05:14:10;;;;;;;6.80;5.60;;;;;;;-4.22;89.06;100611.46;1664567;86;21122;-76
2022/01/11 05:16:44;;;;;;;3.97;3.67;;;;;;;-4.21;88.69;100618.34;1639606;86;21087;-78
2022/01/11 05:19:12;;;;;;;6.27;5.50;;;;;;;-4.22;87.99;100613.58;1664751;86;21041;-75
2022/01/11 05:21:41;;;;;;;5.47;4.07;;;;;;;-4.20;87.71;100620.86;1664875;86;21060;-77
2022/01/11 05:24:10;;;;;;;3.57;3.27;;;;;;;-4.19;87.14;100596.26;1665092;85;20997;-76
2022/01/11 05:26:37;;;;;;;6.93;3.47;;;;;;;-4.17;86.93;100617.95;1648682;86;21046;-75
2022/01/11 05:29:03;;;;;;;5.07;3.97;;;;;;;-4.17;86.64;100632.40;1664769;86;21835;-76
2022/01/11 05:31:32;;;;;;;4.30;4.00;;;;;;;-4.18;86.62;100636.01;1640660;86;21349;-79
2022/01/11 05:33:58;;;;;;;5.67;4.73;;;;;;;-4.17;86.57;100634.22;1665874;85;21039;-77
2022/01/11 05:36:25;;;;;;;4.30;3.90;;;;;;;-4.14;86.44;100650.54;1634000;87;21141;-76
2022/01/11 05:38:53;;;;;;;4.47;4.00;;;;;;;-4.18;86.49;100647.83;1665921;85;21142;-77
2022/01/11 05:41:19;;;;;;;5.93;3.97;;;;;;;-4.15;86.62;100654.59;1664827;86;21132;-77
2022/01/11 05:43:45;;;;;;;5.37;4.27;;;;;;;-4.19;86.57;100650.09;1664674;85;20981;-76
2022/01/11 05:46:12;;;;;;;3.87;3.27;;;;;;;-4.11;86.56;100652.05;1628885;86;21080;-78
2022/01/11 05:48:42;;;;;;;3.87;3.57;;;;;;;-4.04;86.37;100657.14;1639220;85;21073;-76
2022/01/11 05:51:07;;;;;;;3.67;3.37;;;;;;;-4.02;85.99;100656.51;1635041;86;21043;-78
2022/01/11 05:53:34;;;;;;;5.73;4.37;;;;;;;-3.97;85.75;100661.72;1665022;86;21264;-74
2022/01/11 05:56:00;;;;;;;4.43;3.67;;;;;;;-3.94;85.54;100659.33;1666029;86;21103;-75
2022/01/11 05:58:27;;;;;;;5.27;4.67;;;;;;;-3.88;85.50;100669.28;1665987;85;20977;-75
2022/01/11 06:00:53;;;;;;;6.17;4.63;;;;;;;-3.87;85.31;100670.12;1665187;86;21076;-75
2022/01/11 06:03:20;;;;;;;5.03;3.50;;;;;;;-3.82;85.28;100679.75;1664725;86;21001;-75
2022/01/11 06:05:48;;;;;;;3.20;2.90;;;;;;;-3.82;84.75;100675.33;1649361;86;21049;-74
2022/01/11 06:08:16;;;;;;;4.63;3.80;;;;;;;-3.81;84.73;100674.84;1664741;85;21085;-76
2022/01/11 06:10:45;;;;;;;3.03;2.83;;;;;;;-3.81;84.57;100673.05;1649501;86;20985;-75
2022/01/11 06:13:12;;;;;;;4.30;3.70;;;;;;;-3.76;84.56;100670.02;1687957;84;21035;-76
2022/01/11 06:15:39;;;;;;;3.17;2.97;;;;;;;-3.69;84.64;100688.22;1694692;83;21035;-78
2022/01/11 06:18:07;;;;;;;3.60;3.17;;;;;;;-3.62;84.56;100691.51;1664430;84;21096;-78
2022/01/11 06:20:35;;;;;;;3.77;3.37;;;;;;;-3.62;84.15;100680.16;1640978;86;20979;-80
2022/01/11 06:23:02;;;;;;;3.40;3.10;;;;;;;-3.68;84.24;100689.89;1640924;86;21026;-79
2022/01/11 06:25:29;;;;;;;6.10;3.53;;;;;;;-3.78;84.67;100689.02;1588526;87;21002;-76
2022/01/11 06:27:55;;;;;;;4.53;3.70;;;;;;;-3.78;84.84;100692.48;1664913;86;21063;-74
2022/01/11 06:30:22;;;;;;;4.23;3.80;;;;;;;-3.78;85.07;100689.86;1664713;86;21717;-77
2022/01/11 06:32:48;;;;;;;3.70;3.40;;;;;;;-3.74;85.25;100689.94;1666851;84;21068;-75
2022/01/11 06:35:17;;;;;;;4.07;3.67;;;;;;;-3.70;85.27;100690.05;1640682;86;21039;-76
2022/01/11 06:37:47;;;;;;;3.13;2.93;;;;;;;-3.62;85.12;100688.05;1637725;87;21557;-74
2022/01/11 06:40:16;;;;;;;3.37;3.07;;;;;;;-3.62;84.63;100689.36;1665932;86;21594;-79
2022/01/11 06:42:47;;;;;;;6.00;5.03;;;;;;;-3.70;84.62;100693.98;1665963;86;21150;-80
2022/01/11 06:45:14;;;;;;;10.37;7.50;;;;;;;-3.68;84.86;100691.20;1633745;87;21055;-80
2022/01/11 06:47:41;;;;;;;7.53;5.93;;;;;;;-3.63;84.89;100692.95;1656515;86;21085;-78
2022/01/11 06:50:09;;;;;;;10.13;6.60;;;;;;;-3.57;84.93;100702.45;1670091;84;21091;-80
2022/01/11 06:52:36;;;;;;;6.30;3.93;;;;;;;-3.52;84.90;100699.42;1659180;86;21037;-79
2022/01/11 06:55:07;;;;;;;7.43;5.37;;;;;;;-3.56;84.78;100712.02;1636230;86;21747;-74
2022/01/11 06:57:34;;;;;;;8.07;5.37;;;;;;;-3.64;84.65;100705.73;1658918;86;21064;-76
2022/01/11 07:00:01;;;;;;;10.47;5.03;;;;;;;-3.62;84.79;100722.22;1673041;84;21532;-76
2022/01/11 07:02:28;;;;;;;15.67;9.77;;;;;;;-3.59;84.86;100720.62;1690644;84;21549;-75
2022/01/11 07:04:56;;;;;;;14.90;6.80;;;;;;;-3.55;84.77;100721.53;1689841;83;21098;-76
2022/01/11 07:07:25;;;;;;;8.73;5.87;;;;;;;-3.52;84.78;100716.51;1658685;86;21396;-76
2022/01/11 07:09:51;;;;;;;3.47;2.93;;;;;;;-3.50;84.67;100718.50;1664477;85;21067;-76
2022/01/11 07:12:18;;;;;;;5.97;4.03;;;;;;;-3.45;84.68;100726.02;1674824;85;21380;-83
2022/01/11 07:14:44;;;;;;;4.30;3.83;;;;;;;-3.44;84.61;100725.86;1638760;85;21047;-83
2022/01/11 07:17:12;;;;;;;6.87;4.77;;;;;;;-3.51;83.75;100723.44;1668857;84;21000;-75
2022/01/11 07:19:40;;;;;;;4.37;2.93;;;;;;;-3.52;83.96;100713.88;1661492;86;21065;-77
2022/01/11 07:22:09;;;;;;;3.07;2.77;;;;;;;-3.47;84.32;100730.09;1640111;86;21129;-75
2022/01/11 07:24:35;;;;;;;5.47;4.60;;;;;;;-3.43;84.20;100724.91;1674184;85;21011;-76
2022/01/11 07:27:02;;;;;;;2.90;2.63;;;;;;;-3.44;83.93;100732.91;1673706;85;21457;-75
2022/01/11 07:29:31;;;;;;;5.13;3.70;;;;;;;-3.53;83.79;100741.97;1652112;84;21047;-76
2022/01/11 07:31:57;;;;;;;12.90;7.90;;;;;;;-3.52;83.85;100733.12;1660775;85;21117;-76
2022/01/11 07:34:24;;;;;;;10.67;5.07;;;;;;;-3.56;83.82;100726.47;1674857;85;21012;-78
2022/01/11 07:36:50;;;;;;;5.13;4.23;;;;;;;-3.61;83.93;100743.61;1674648;85;22302;-79
2022/01/11 07:39:17;;;;;;;5.83;3.43;;;;;;;-3.59;84.19;100725.88;1660758;85;20975;-76
2022/01/11 07:41:43;;;;;;;8.33;4.93;;;;;;;-3.59;84.13;100735.08;1673476;85;21043;-78
2022/01/11 07:44:11;;;;;;;11.77;7.57;;;;;;;-3.54;84.37;100731.09;1671772;84;21573;-80
2022/01/11 07:46:40;;;;;;;6.03;4.83;;;;;;;-3.55;84.25;100733.88;1684531;84;21064;-78
2022/01/11 07:49:08;;;;;;;8.60;5.43;;;;;;;-3.52;84.42;100740.17;1713362;82;20982;-79
2022/01/11 07:51:35;;;;;;;9.70;6.83;;;;;;;-3.45;84.56;100748.38;1685465;85;21092;-77
2022/01/11 07:54:05;;;;;;;5.93;4.83;;;;;;;-3.42;84.54;100747.61;1690272;84;21055;-77
2022/01/11 07:56:33;;;;;;;5.73;3.97;;;;;;;-3.47;84.34;100751.12;1661303;84;21849;-81
2022/01/11 07:58:59;;;;;;;3.33;3.03;;;;;;;-3.50;84.06;100751.37;1661573;84;20960;-81
2022/01/11 08:01:27;;;;;;;2.73;2.53;;;;;;;-3.47;83.82;100749.81;1689308;83;22126;-81
2022/01/11 08:03:54;;;;;;;4.23;3.53;;;;;;;-3.46;83.71;100754.11;1739538;82;21020;-82
2022/01/11 08:06:22;;;;;;;5.30;4.70;;;;;;;-3.50;83.74;100759.26;1691104;83;21015;-80
2022/01/11 08:08:50;;;;;;;4.07;3.77;;;;;;;-3.52;83.88;100758.09;1675501;83;21089;-78
2022/01/11 08:11:16;;;;;;;4.03;3.63;;;;;;;-3.62;84.27;100753.28;1728966;82;20981;-79
2022/01/11 08:13:44;;;;;;;3.10;2.80;;;;;;;-3.58;84.37;100756.47;1741688;82;21069;-80
2022/01/11 08:16:10;;;;;;;5.43;4.07;;;;;;;-3.59;84.40;100753.48;1714415;82;21166;-80
2022/01/11 08:18:38;;;;;;;3.40;3.10;;;;;;;-3.56;84.41;100751.92;1742103;82;21066;-83
2022/01/11 08:21:04;;;;;;;4.17;2.97;;;;;;;-3.54;84.34;100756.55;1695310;83;21062;-80
2022/01/11 08:23:30;;;;;;;3.40;2.83;;;;;;;-3.52;84.47;100758.58;1717645;83;21091;-82
2022/01/11 08:26:00;;;;;;;3.07;2.87;;;;;;;-3.53;84.56;100766.94;1684042;83;21525;-83
2022/01/11 08:28:27;;;;;;;4.60;3.77;;;;;;;-3.60;84.34;100764.48;1717912;83;21493;-77
2022/01/11 08:30:57;;;;;;;5.53;4.07;;;;;;;-3.62;84.62;100754.59;1715903;83;21096;-79
2022/01/11 08:33:24;;;;;;;3.40;3.10;;;;;;;-3.60;84.82;100758.42;1713720;83;21114;-80
2022/01/11 08:35:52;;;;;;;3.03;2.83;;;;;;;-3.60;84.59;100752.66;1684764;83;20950;-80
2022/01/11 08:38:19;;;;;;;3.20;2.90;;;;;;;-3.59;84.69;100763.52;1713621;83;21013;-82
2022/01/11 08:40:48;;;;;;;3.63;3.33;;;;;;;-3.56;84.62;100755.39;1688670;83;21022;-77
2022/01/11 08:43:14;;;;;;;3.77;3.47;;;;;;;-3.57;84.58;100756.83;1717749;83;21656;-82
2022/01/11 08:45:41;;;;;;;3.40;2.80;;;;;;;-3.55;84.76;100755.72;1666075;83;21368;-82
2022/01/11 08:48:09;;;;;;;6.03;5.43;;;;;;;-3.47;84.82;100758.17;1723816;83;21197;-83
2022/01/11 08:50:37;;;;;;;10.07;6.43;;;;;;;-3.46;84.66;100759.84;1726956;82;21014;-78
2022/01/11 08:53:03;;;;;;;6.80;5.70;;;;;;;-3.35;84.79;100752.66;1727596;83;20961;-86
2022/01/11 08:55:31;;;;;;;8.00;5.93;;;;;;;-3.26;84.54;100747.91;1733346;82;21051;-76
2022/01/11 08:57:58;;;;;;;11.77;7.73;;;;;;;-3.19;84.45;100750.36;1741100;82;21742;-82
2022/01/11 09:00:26;;;;;;;11.00;7.77;;;;;;;-3.10;84.37;100747.39;1724289;83;22165;-82
2022/01/11 09:02:58;;;;;;;7.33;5.43;;;;;;;-3.02;83.98;100744.90;1726577;83;21047;-84
2022/01/11 09:05:28;;;;;;;6.63;4.70;;;;;;;-2.90;83.99;100738.56;1701957;83;21542;-81
2022/01/11 09:07:59;;;;;;;5.05;4.50;;;;;;;-2.82;83.26;100739.17;1700902;83;21073;-82
2022/01/11 09:10:28;;;;;;;4.73;4.20;;;;;;;-2.83;82.38;100733.58;1726036;83;21544;-84
2022/01/11 09:12:56;;;;;;;5.00;3.67;;;;;;;-2.81;82.66;100736.41;1699762;83;21608;-82
2022/01/11 09:15:24;;;;;;;4.97;4.47;;;;;;;-2.70;82.85;100739.39;1700054;83;21057;-82
2022/01/11 09:17:55;;;;;;;5.57;5.07;;;;;;;-2.60;82.63;100733.64;1724315;83;21032;-83
2022/01/11 09:20:21;;;;;;;4.83;4.27;;;;;;;-2.63;81.58;100732.59;1721566;83;21049;-80
2022/01/11 09:22:48;;;;;;;4.80;4.30;;;;;;;-2.61;81.83;100728.02;1721821;83;22153;-86
2022/01/11 09:25:16;;;;;;;4.90;4.50;;;;;;;-2.54;81.93;100726.99;1698208;83;21108;-86
2022/01/11 09:27:44;;;;;;;3.97;3.50;;;;;;;-2.48;81.86;100742.20;1728511;81;21055;-85
2022/01/11 09:30:13;;;;;;;4.73;3.97;;;;;;;-2.57;81.46;100732.52;1726918;82;21548;-82
2022/01/11 09:32:42;;;;;;;4.50;4.10;;;;;;;-2.54;81.79;100729.63;1726747;83;21593;-77
2022/01/11 09:35:13;;;;;;;4.13;3.50;;;;;;;-2.55;81.74;100738.00;1721883;83;21821;-78
2022/01/11 09:37:41;;;;;;;6.37;4.20;;;;;;;-2.59;81.57;100723.94;1678530;83;21599;-79
2022/01/11 09:40:09;;;;;;;5.33;4.83;;;;;;;-2.58;81.96;100727.73;1726225;83;20981;-75
2022/01/11 09:42:38;;;;;;;6.27;5.53;;;;;;;-2.55;81.96;100729.27;1725773;83;21537;-78
2022/01/11 09:45:07;;;;;;;10.20;5.53;;;;;;;-2.56;81.73;100730.23;1694162;83;21094;-76
2022/01/11 09:47:38;;;;;;;8.50;5.73;;;;;;;-2.56;81.96;100738.97;1695840;83;22313;-78
2022/01/11 09:50:06;;;;;;;6.07;4.73;;;;;;;-2.52;82.28;100717.12;1688995;83;21522;-78
2022/01/11 09:52:35;;;;;;;7.93;4.97;;;;;;;-2.52;81.98;100728.50;1667141;83;21124;-76
2022/01/11 09:55:05;;;;;;;3.90;3.07;;;;;;;-2.59;82.00;100726.09;1689311;83;21030;-75
2022/01/11 09:57:32;;;;;;;5.37;4.47;;;;;;;-2.58;82.12;100743.53;1689677;83;21128;-80
2022/01/11 10:00:00;;;;;;;8.63;4.70;;;;;;;-2.53;82.09;100736.53;1714762;82;21142;-78
2022/01/11 10:02:46;;;;;;;8.87;5.80;;;;;;;-2.59;81.67;100730.53;1718022;82;20942;-84
2022/01/11 10:05:14;;;;;;;5.30;4.23;;;;;;;-2.58;81.92;100727.73;1717170;82;21510;-85
2022/01/11 10:07:49;;;;;;;14.07;7.23;;;;;;;-2.64;81.69;100738.84;1690336;83;21043;-84
2022/01/11 10:10:22;;;;;;;8.90;4.53;;;;;;;-2.66;81.45;100752.14;1658377;82;21550;-83
2022/01/11 10:12:58;;;;;;;7.10;5.42;;;;;;;-2.79;81.66;100734.97;1741779;82;21158;-81
2022/01/11 10:15:36;;;;;;;5.97;4.33;;;;;;;-2.84;81.56;100726.17;1717286;82;20914;-82
2022/01/11 10:18:09;;;;;;;10.80;6.53;;;;;;;-2.90;81.12;100727.19;1711945;83;20965;-80
2022/01/11 10:20:36;;;;;;;4.47;3.90;;;;;;;-2.83;81.72;100729.64;1689795;83;20926;-77
2022/01/11 10:23:08;;;;;;;10.70;6.20;;;;;;;-2.81;81.95;100729.00;1715458;83;21106;-83
2022/01/11 10:25:46;;;;;;;7.83;5.62;;;;;;;-2.78;82.45;100726.91;1688441;83;21069;-85
2022/01/11 10:28:12;;;;;;;9.40;4.80;;;;;;;-2.70;82.44;100723.12;1681566;81;21337;-76
2022/01/11 10:30:41;;;;;;;5.17;4.67;;;;;;;-2.61;82.07;100722.76;1752664;81;20977;-82
2022/01/11 10:33:10;;;;;;;9.17;5.53;;;;;;;-2.60;81.58;100722.27;1752675;81;20980;-79
2022/01/11 10:35:42;;;;;;;11.07;5.17;;;;;;;-2.52;81.75;100724.55;1752599;81;21107;-82
2022/01/11 10:38:14;;;;;;;5.37;4.45;;;;;;;-2.45;81.49;100737.52;1720796;81;21546;-88
2022/01/11 10:40:43;;;;;;;7.27;5.27;;;;;;;-2.43;81.21;100722.87;1689940;83;20993;-87
2022/01/11 10:43:16;;;;;;;12.37;7.40;;;;;;;-2.39;81.46;100725.55;1717591;83;21243;-87
2022/01/11 10:45:47;;;;;;;10.80;6.60;;;;;;;-2.32;81.65;100725.35;1718424;82;21076;-85
2022/01/11 10:48:21;;;;;;;8.67;5.87;;;;;;;-2.37;81.36;100735.48;1739443;80;21041;-81
2022/01/11 10:50:59;;;;;;;7.63;5.63;;;;;;;-2.35;81.52;100730.91;1739844;82;21857;-84
2022/01/11 10:53:33;;;;;;;5.80;5.23;;;;;;;-2.30;81.75;100739.20;1719301;83;20988;-83
2022/01/11 10:56:02;;;;;;;5.43;4.10;;;;;;;-2.33;81.85;100737.69;1719787;83;20975;-82
2022/01/11 10:58:36;;;;;;;5.87;4.23;;;;;;;-2.26;82.17;100742.75;1738889;82;21048;-83
2022/01/11 11:01:05;;;;;;;7.20;5.43;;;;;;;-2.17;82.00;100733.16;1717880;83;21061;-81
2022/01/11 11:03:33;;;;;;;8.90;5.43;;;;;;;-2.18;81.69;100724.06;1686732;83;21028;-83
2022/01/11 11:06:10;;;;;;;6.33;5.23;;;;;;;-2.21;81.32;100739.69;1738482;82;20989;-81
2022/01/11 11:08:40;;;;;;;9.07;6.43;;;;;;;-2.25;81.72;100740.92;1714001;82;20986;-84
2022/01/11 11:11:22;;;;;;;6.03;4.05;;;;;;;-2.21;82.00;100735.22;1728281;82;20959;-85
2022/01/11 11:13:52;;;;;;;9.87;5.63;;;;;;;-2.10;82.37;100732.08;1710371;82;21088;-82
2022/01/11 11:16:32;;;;;;;7.33;5.13;;;;;;;-2.12;82.51;100729.61;1717884;82;20949;-83
2022/01/11 11:19:02;;;;;;;4.90;4.40;;;;;;;-2.16;82.80;100727.41;1735402;81;21047;-89
2022/01/11 11:21:37;;;;;;;6.70;4.30;;;;;;;-2.08;83.04;100737.57;1708308;82;20954;-86
2022/01/11 11:24:10;;;;;;;4.50;3.73;;;;;;;-2.02;82.95;100737.01;1718870;83;21047;-87
2022/01/11 11:26:49;;;;;;;5.67;3.98;;;;;;;-1.97;82.81;100734.77;1715114;83;20967;-86
2022/01/11 11:29:19;;;;;;;8.83;6.20;;;;;;;-2.05;82.15;100733.80;1711212;83;21112;-74
2022/01/11 11:31:47;;;;;;;7.83;5.00;;;;;;;-2.17;82.59;100735.80;1715206;82;21001;-79
2022/01/11 11:34:13;;;;;;;8.43;4.63;;;;;;;-2.26;83.30;100729.58;1689321;83;21021;-79